createdAt,value
2018-03-11T00:01:02.607Z,0.00
2018-03-11T00:02:02.548Z,0.00
2018-03-11T00:03:54.309Z,0.00
2018-03-11T00:04:54.232Z,0.00
2018-03-11T00:06:45.985Z,0.00
2018-03-11T00:07:45.910Z,0.00
2018-03-11T00:09:37.667Z,0.00
2018-03-11T00:10:37.592Z,0.00
2018-03-11T00:12:29.340Z,0.00
2018-03-11T00:13:29.293Z,0.00
2018-03-11T00:15:21.035Z,0.00
2018-03-11T00:16:20.956Z,0.00
2018-03-11T00:18:12.704Z,0.00
2018-03-11T00:19:12.640Z,0.00
2018-03-11T00:21:04.412Z,0.00
2018-03-11T00:22:04.333Z,0.00
2018-03-11T00:23:56.131Z,0.00
2018-03-11T00:24:56.052Z,0.00
2018-03-11T00:26:47.820Z,0.00
2018-03-11T00:27:47.759Z,0.00
2018-03-11T00:29:39.515Z,0.00
2018-03-11T00:30:39.442Z,0.00
2018-03-11T00:32:31.238Z,0.00
2018-03-11T00:33:31.176Z,0.00
2018-03-11T00:35:22.995Z,0.00
2018-03-11T00:36:22.927Z,0.00
2018-03-11T00:38:14.682Z,0.00
2018-03-11T00:39:14.633Z,0.00
2018-03-11T00:41:06.423Z,0.00
2018-03-11T00:42:06.344Z,0.00
2018-03-11T00:43:58.198Z,0.00
2018-03-11T00:44:58.131Z,0.00
2018-03-11T00:46:49.933Z,0.00
2018-03-11T00:47:49.857Z,0.00
2018-03-11T00:49:41.650Z,0.00
2018-03-11T00:50:41.569Z,0.00
2018-03-11T00:52:33.342Z,0.00
2018-03-11T00:53:33.253Z,0.00
2018-03-11T00:55:25.004Z,0.00
2018-03-11T00:56:24.961Z,0.00
2018-03-11T00:58:16.714Z,0.00
2018-03-11T00:59:16.640Z,0.00
2018-03-11T01:01:08.463Z,0.00
2018-03-11T01:02:08.385Z,0.00
2018-03-11T01:04:00.167Z,0.00
2018-03-11T01:05:00.102Z,0.00
2018-03-11T01:06:51.915Z,0.00
2018-03-11T01:07:51.834Z,0.00
2018-03-11T01:09:43.596Z,0.00
2018-03-11T01:10:43.534Z,0.00
2018-03-11T01:12:35.288Z,0.00
2018-03-11T01:13:35.213Z,0.00
2018-03-11T01:15:26.973Z,0.00
2018-03-11T01:16:26.902Z,0.00
2018-03-11T01:18:18.657Z,0.00
2018-03-11T01:19:18.585Z,0.00
2018-03-11T01:21:10.319Z,0.00
2018-03-11T01:22:10.261Z,0.00
2018-03-11T01:24:02.039Z,0.00
2018-03-11T01:25:01.991Z,0.00
2018-03-11T01:26:53.716Z,0.00
2018-03-11T01:27:53.647Z,0.00
2018-03-11T01:29:45.409Z,0.00
2018-03-11T01:30:45.332Z,0.00
2018-03-11T01:32:37.129Z,0.00
2018-03-11T01:33:37.056Z,0.00
2018-03-11T01:35:28.816Z,0.00
2018-03-11T01:36:28.741Z,0.00
2018-03-11T01:38:20.505Z,0.00
2018-03-11T01:39:20.432Z,0.00
2018-03-11T01:41:12.241Z,0.00
2018-03-11T01:42:12.116Z,0.00
2018-03-11T01:44:03.873Z,0.00
2018-03-11T01:45:03.794Z,0.00
2018-03-11T01:46:55.554Z,0.00
2018-03-11T01:47:55.489Z,0.00
2018-03-11T01:49:47.295Z,0.00
2018-03-11T01:50:47.215Z,0.00
2018-03-11T01:52:38.967Z,0.00
2018-03-11T01:53:38.891Z,0.00
2018-03-11T01:55:30.668Z,0.00
2018-03-11T01:56:30.590Z,0.00
2018-03-11T01:58:22.383Z,0.00
2018-03-11T01:59:22.298Z,0.00
2018-03-11T02:01:14.034Z,0.00
2018-03-11T02:02:13.967Z,0.00
2018-03-11T02:04:05.755Z,0.00
2018-03-11T02:05:05.671Z,0.00
2018-03-11T02:06:57.428Z,0.00
2018-03-11T02:07:57.362Z,0.00
2018-03-11T02:09:49.120Z,0.00
2018-03-11T02:10:49.049Z,0.00
2018-03-11T02:12:40.787Z,0.00
2018-03-11T02:13:40.723Z,0.00
2018-03-11T02:15:32.498Z,0.00
2018-03-11T02:16:32.411Z,0.00
2018-03-11T02:18:24.206Z,0.00
2018-03-11T02:19:24.137Z,0.00
2018-03-11T02:21:15.903Z,0.00
2018-03-11T02:22:15.817Z,0.00
2018-03-11T02:24:07.567Z,0.00
2018-03-11T02:25:07.500Z,0.00
2018-03-11T02:26:59.267Z,0.00
2018-03-11T02:27:59.184Z,0.00
2018-03-11T02:29:50.954Z,0.00
2018-03-11T02:30:50.885Z,0.00
2018-03-11T02:32:42.677Z,0.00
2018-03-11T02:33:42.557Z,0.00
2018-03-11T02:35:34.428Z,0.00
2018-03-11T02:36:34.322Z,0.00
2018-03-11T02:38:26.076Z,0.00
2018-03-11T02:39:26.008Z,0.00
2018-03-11T02:41:17.812Z,0.00
2018-03-11T02:42:17.732Z,0.00
2018-03-11T02:44:09.477Z,0.00
2018-03-11T02:45:09.407Z,0.00
2018-03-11T02:47:01.212Z,0.00
2018-03-11T02:48:01.095Z,0.00
2018-03-11T02:49:52.858Z,0.00
2018-03-11T02:50:52.795Z,0.00
2018-03-11T02:52:44.565Z,0.00
2018-03-11T02:53:44.485Z,0.00
2018-03-11T02:55:36.220Z,0.00
2018-03-11T02:58:27.913Z,0.00
2018-03-11T02:59:27.833Z,0.00
2018-03-11T03:01:19.619Z,0.00
2018-03-11T03:02:19.507Z,0.00
2018-03-11T03:04:11.315Z,0.00
2018-03-11T03:05:11.249Z,0.00
2018-03-11T03:07:03.000Z,0.00
2018-03-11T03:08:02.926Z,0.00
2018-03-11T03:09:54.674Z,0.00
2018-03-11T03:10:54.613Z,0.00
2018-03-11T03:12:46.516Z,0.00
2018-03-11T03:13:46.407Z,0.00
2018-03-11T03:15:38.132Z,0.00
2018-03-11T03:16:38.068Z,0.00
2018-03-11T03:18:29.828Z,0.00
2018-03-11T03:19:29.748Z,0.00
2018-03-11T03:21:21.503Z,0.00
2018-03-11T03:22:21.435Z,0.00
2018-03-11T03:24:13.195Z,0.00
2018-03-11T03:25:13.121Z,0.00
2018-03-11T03:27:04.882Z,0.00
2018-03-11T03:28:04.818Z,0.00
2018-03-11T03:29:56.563Z,0.00
2018-03-11T03:30:56.502Z,0.00
2018-03-11T03:32:48.285Z,0.00
2018-03-11T03:33:48.216Z,0.00
2018-03-11T03:35:39.978Z,0.00
2018-03-11T03:36:39.967Z,0.00
2018-03-11T03:38:31.686Z,0.00
2018-03-11T03:39:31.605Z,0.00
2018-03-11T03:41:23.413Z,0.00
2018-03-11T03:42:23.316Z,0.00
2018-03-11T03:44:15.079Z,0.00
2018-03-11T03:45:15.007Z,0.00
2018-03-11T03:47:06.845Z,0.00
2018-03-11T03:48:06.780Z,0.00
2018-03-11T03:49:58.631Z,0.00
2018-03-11T03:50:58.562Z,0.00
2018-03-11T03:52:50.324Z,0.00
2018-03-11T03:53:50.228Z,0.00
2018-03-11T03:55:41.979Z,0.00
2018-03-11T03:56:41.902Z,0.00
2018-03-11T03:58:33.674Z,0.00
2018-03-11T03:59:33.603Z,0.00
2018-03-11T04:01:25.371Z,0.00
2018-03-11T04:02:25.288Z,0.00
2018-03-11T04:04:17.037Z,0.00
2018-03-11T04:05:16.982Z,0.00
2018-03-11T04:07:08.723Z,0.00
2018-03-11T04:08:08.648Z,0.00
2018-03-11T04:10:00.538Z,0.00
2018-03-11T04:11:00.461Z,0.00
2018-03-11T04:12:52.243Z,0.00
2018-03-11T04:13:52.188Z,0.00
2018-03-11T04:15:43.951Z,0.00
2018-03-11T04:16:43.874Z,0.00
2018-03-11T04:18:35.599Z,0.00
2018-03-11T04:19:35.533Z,0.00
2018-03-11T04:21:27.298Z,0.00
2018-03-11T04:22:27.211Z,0.00
2018-03-11T04:24:18.957Z,0.00
2018-03-11T04:25:18.899Z,0.00
2018-03-11T04:27:10.671Z,0.00
2018-03-11T04:28:10.592Z,0.00
2018-03-11T04:30:02.397Z,0.00
2018-03-11T04:31:02.329Z,0.00
2018-03-11T04:32:54.083Z,0.00
2018-03-11T04:33:54.010Z,0.00
2018-03-11T04:35:45.820Z,0.00
2018-03-11T04:36:45.699Z,0.00
2018-03-11T04:38:37.484Z,0.00
2018-03-11T04:39:37.404Z,0.00
2018-03-11T04:41:29.256Z,0.00
2018-03-11T04:42:29.141Z,0.00
2018-03-11T04:44:20.874Z,0.00
2018-03-11T04:45:20.897Z,0.00
2018-03-11T04:47:12.543Z,0.00
2018-03-11T04:48:12.485Z,0.00
2018-03-11T04:50:04.204Z,0.00
2018-03-11T04:51:04.134Z,0.00
2018-03-11T04:52:56.045Z,0.00
2018-03-11T04:53:55.951Z,0.00
2018-03-11T04:55:47.810Z,0.00
2018-03-11T04:56:47.742Z,0.00
2018-03-11T04:58:39.503Z,0.00
2018-03-11T04:59:39.427Z,0.00
2018-03-11T05:01:31.309Z,0.00
2018-03-11T05:02:31.106Z,0.00
2018-03-11T05:04:22.899Z,0.00
2018-03-11T05:05:22.812Z,0.00
2018-03-11T05:07:14.552Z,0.00
2018-03-11T05:08:14.488Z,0.00
2018-03-11T05:10:06.290Z,0.00
2018-03-11T05:11:06.208Z,0.00
2018-03-11T05:12:57.971Z,0.00
2018-03-11T05:13:57.912Z,0.00
2018-03-11T05:15:49.661Z,0.00
2018-03-11T05:16:49.611Z,0.00
2018-03-11T05:18:41.325Z,5.63
2018-03-11T05:19:41.299Z,5.63
2018-03-11T05:21:33.057Z,5.63
2018-03-11T05:22:32.980Z,5.63
2018-03-11T05:24:24.888Z,11.25
2018-03-11T05:25:24.727Z,11.25
2018-03-11T05:27:16.449Z,11.25
2018-03-11T05:28:16.389Z,16.88
2018-03-11T05:30:08.292Z,16.88
2018-03-11T05:31:08.073Z,22.50
2018-03-11T05:32:59.857Z,22.50
2018-03-11T05:33:59.768Z,28.13
2018-03-11T05:35:51.574Z,28.13
2018-03-11T05:36:51.494Z,33.75
2018-03-11T05:38:43.235Z,39.38
2018-03-11T05:39:43.168Z,39.38
2018-03-11T05:41:35.017Z,45.00
2018-03-11T05:42:34.894Z,50.63
2018-03-11T05:44:26.659Z,56.25
2018-03-11T05:45:26.577Z,61.88
2018-03-11T05:47:18.395Z,73.13
2018-03-11T05:48:18.323Z,78.75
2018-03-11T05:50:10.072Z,84.38
2018-03-11T05:51:10.010Z,90.00
2018-03-11T05:53:01.763Z,118.13
2018-03-11T05:54:01.684Z,135.00
2018-03-11T05:55:53.429Z,180.00
2018-03-11T05:56:53.359Z,180.00
2018-03-11T05:58:45.138Z,241.88
2018-03-11T05:59:45.045Z,309.38
2018-03-11T06:01:36.771Z,416.25
2018-03-11T06:02:36.738Z,495.00
2018-03-11T06:04:28.460Z,523.13
2018-03-11T06:05:28.382Z,658.13
2018-03-11T06:07:20.123Z,556.88
2018-03-11T06:08:20.059Z,703.13
2018-03-11T06:10:11.955Z,303.75
2018-03-11T06:11:11.743Z,438.75
2018-03-11T06:13:03.512Z,984.38
2018-03-11T06:14:03.438Z,1175.63
2018-03-11T06:15:55.227Z,911.25
2018-03-11T06:16:55.206Z,933.75
2018-03-11T06:18:46.938Z,1085.63
2018-03-11T06:19:46.863Z,1063.13
2018-03-11T06:21:38.629Z,444.38
2018-03-11T06:22:38.568Z,331.88
2018-03-11T06:24:30.363Z,331.88
2018-03-11T06:25:30.280Z,337.50
2018-03-11T06:27:22.028Z,343.13
2018-03-11T06:28:21.967Z,348.75
2018-03-11T06:30:13.718Z,365.63
2018-03-11T06:31:13.692Z,371.25
2018-03-11T06:33:05.413Z,376.88
2018-03-11T06:34:05.339Z,376.88
2018-03-11T06:35:57.109Z,382.50
2018-03-11T06:36:57.040Z,388.13
2018-03-11T06:38:48.860Z,382.50
2018-03-11T06:39:48.816Z,388.13
2018-03-11T06:41:40.761Z,405.00
2018-03-11T06:42:40.658Z,405.00
2018-03-11T06:44:32.564Z,433.13
2018-03-11T06:45:32.363Z,450.00
2018-03-11T06:47:24.110Z,472.50
2018-03-11T06:48:24.033Z,489.38
2018-03-11T06:50:15.847Z,528.75
2018-03-11T06:51:15.769Z,556.88
2018-03-11T06:53:07.571Z,1063.13
2018-03-11T06:54:07.501Z,1912.50
2018-03-11T06:55:59.423Z,2733.75
2018-03-11T06:56:59.371Z,2773.13
2018-03-11T06:58:51.137Z,3054.38
2018-03-11T06:59:51.050Z,2958.75
2018-03-11T07:01:42.820Z,2446.88
2018-03-11T07:02:42.772Z,2525.63
2018-03-11T07:04:34.524Z,3155.63
2018-03-11T07:05:34.452Z,3211.88
2018-03-11T07:07:26.218Z,3206.25
2018-03-11T07:08:26.153Z,3150.00
2018-03-11T07:10:17.906Z,3048.75
2018-03-11T07:11:17.848Z,2705.63
2018-03-11T07:13:09.621Z,2120.63
2018-03-11T07:14:09.594Z,2295.00
2018-03-11T07:16:01.342Z,2598.75
2018-03-11T07:17:01.287Z,2750.63
2018-03-11T07:18:53.222Z,2469.38
2018-03-11T07:19:53.198Z,2497.50
2018-03-11T07:21:44.930Z,2463.75
2018-03-11T07:22:44.859Z,2278.13
2018-03-11T07:24:36.667Z,2345.63
2018-03-11T07:25:36.609Z,2677.50
2018-03-11T07:27:28.420Z,3155.63
2018-03-11T07:28:28.354Z,2317.50
2018-03-11T07:30:20.277Z,1856.25
2018-03-11T07:31:20.213Z,1901.25
2018-03-11T07:33:11.991Z,1974.38
2018-03-11T07:34:11.981Z,2390.63
2018-03-11T07:36:03.737Z,2868.75
2018-03-11T07:37:03.651Z,3133.13
2018-03-11T07:38:55.446Z,2604.38
2018-03-11T07:39:55.375Z,2401.88
2018-03-11T07:41:47.152Z,2013.75
2018-03-11T07:42:47.095Z,2019.38
2018-03-11T07:44:38.896Z,2244.38
2018-03-11T07:45:38.830Z,1535.63
2018-03-11T07:47:30.630Z,1411.88
2018-03-11T07:48:30.570Z,1501.88
2018-03-11T07:50:22.347Z,1833.75
2018-03-11T07:51:22.279Z,1665.00
2018-03-11T07:53:14.062Z,1867.50
2018-03-11T07:54:14.005Z,2131.88
2018-03-11T07:56:05.859Z,2019.38
2018-03-11T07:57:05.786Z,2463.75
2018-03-11T07:58:57.564Z,2593.13
2018-03-11T07:59:57.524Z,2812.50
2018-03-11T08:01:49.302Z,3133.13
2018-03-11T08:02:49.232Z,3133.13
2018-03-11T08:04:41.187Z,3926.25
2018-03-11T08:05:41.117Z,4117.50
2018-03-11T08:07:32.934Z,4173.75
2018-03-11T08:08:32.899Z,4258.13
2018-03-11T08:10:24.829Z,4095.00
2018-03-11T08:11:24.594Z,4201.88
2018-03-11T08:13:17.405Z,3892.50
2018-03-11T08:14:17.332Z,4123.13
2018-03-11T08:16:09.153Z,4078.13
2018-03-11T08:17:09.070Z,4168.13
2018-03-11T08:19:00.920Z,4213.13
2018-03-11T08:20:00.873Z,4016.25
2018-03-11T08:21:52.707Z,4100.63
2018-03-11T08:22:52.643Z,3712.50
2018-03-11T08:24:44.439Z,4027.50
2018-03-11T08:25:44.389Z,4185.00
2018-03-11T08:27:36.212Z,4241.25
2018-03-11T08:28:36.148Z,4336.88
2018-03-11T08:30:27.925Z,4230.00
2018-03-11T08:31:27.876Z,4325.63
2018-03-11T08:33:19.698Z,4381.88
2018-03-11T08:34:19.637Z,4426.88
2018-03-11T08:36:11.440Z,4483.13
2018-03-11T08:37:11.387Z,4432.50
2018-03-11T08:39:03.214Z,4263.75
2018-03-11T08:40:03.155Z,4308.75
2018-03-11T08:41:55.026Z,4314.38
2018-03-11T08:42:55.073Z,4269.38
2018-03-11T08:44:47.019Z,4370.63
2018-03-11T08:45:47.049Z,4483.13
2018-03-11T08:47:38.799Z,4336.88
2018-03-11T08:48:38.751Z,4365.00
2018-03-11T08:50:30.630Z,4331.25
2018-03-11T08:51:30.566Z,4449.38
2018-03-11T08:53:22.490Z,4500.00
2018-03-11T08:54:22.301Z,3915.00
2018-03-11T08:56:14.072Z,4387.50
2018-03-11T08:57:14.028Z,4140.00
2018-03-11T08:59:05.880Z,3864.38
2018-03-11T09:00:05.763Z,4168.13
2018-03-11T09:01:57.682Z,4365.00
2018-03-11T09:02:57.628Z,4241.25
2018-03-11T09:04:49.425Z,3836.25
2018-03-11T09:05:49.367Z,4044.38
2018-03-11T09:07:41.133Z,4100.63
2018-03-11T09:08:41.087Z,4151.25
2018-03-11T09:10:32.966Z,4404.38
2018-03-11T09:11:32.836Z,4179.38
2018-03-11T09:13:24.623Z,4230.00
2018-03-11T09:14:24.646Z,4359.38
2018-03-11T09:16:16.511Z,4173.75
2018-03-11T09:17:16.454Z,4263.75
2018-03-11T09:19:08.904Z,4162.50
2018-03-11T09:20:08.265Z,4235.63
2018-03-11T09:22:00.180Z,4055.63
2018-03-11T09:23:00.132Z,4140.00
2018-03-11T09:24:52.127Z,4201.88
2018-03-11T09:25:52.077Z,4106.25
2018-03-11T09:27:45.135Z,4123.13
2018-03-11T09:28:44.264Z,4286.25
2018-03-11T09:30:37.168Z,4100.63
2018-03-11T09:31:37.068Z,4061.25
2018-03-11T09:33:28.843Z,4162.50
2018-03-11T09:34:28.813Z,4235.63
2018-03-11T09:36:20.879Z,4280.63
2018-03-11T09:37:20.800Z,4140.00
2018-03-11T09:39:12.912Z,4303.13
2018-03-11T09:40:12.836Z,4128.75
2018-03-11T09:42:06.222Z,4173.75
2018-03-11T09:43:05.526Z,4179.38
2018-03-11T09:44:57.670Z,4488.75
2018-03-11T09:45:57.661Z,4083.75
2018-03-11T09:47:49.928Z,1957.50
2018-03-11T09:48:49.150Z,4066.88
2018-03-11T09:50:41.068Z,4083.75
2018-03-11T09:51:41.044Z,3785.63
2018-03-11T09:53:32.999Z,4038.75
2018-03-11T09:54:32.728Z,3943.13
2018-03-11T09:56:26.612Z,3999.38
2018-03-11T09:57:24.671Z,3948.75
2018-03-11T09:59:16.539Z,4128.75
2018-03-11T10:00:16.398Z,3915.00
2018-03-11T10:02:08.467Z,4078.13
2018-03-11T10:03:08.256Z,3954.38
2018-03-11T10:05:00.004Z,3976.88
2018-03-11T10:05:59.957Z,3999.38
2018-03-11T10:07:52.608Z,3774.38
2018-03-11T10:08:51.834Z,3386.25
2018-03-11T10:10:43.762Z,3487.50
2018-03-11T10:11:43.735Z,3352.50
2018-03-11T10:13:36.140Z,3543.75
2018-03-11T10:14:35.672Z,3380.63
2018-03-11T10:16:28.650Z,3217.50
2018-03-11T10:17:28.581Z,3521.25
2018-03-11T10:19:20.425Z,3352.50
2018-03-11T10:20:20.351Z,3481.88
2018-03-11T10:22:12.230Z,3380.63
2018-03-11T10:23:12.174Z,3251.25
2018-03-11T10:25:04.147Z,3155.63
2018-03-11T10:26:04.091Z,2475.00
2018-03-11T10:27:55.941Z,3178.13
2018-03-11T10:28:55.832Z,3211.88
2018-03-11T10:30:47.910Z,1614.38
2018-03-11T10:31:47.782Z,1603.13
2018-03-11T10:33:39.658Z,1738.13
2018-03-11T10:34:39.576Z,1642.50
2018-03-11T10:36:31.672Z,1231.88
2018-03-11T10:37:31.501Z,1395.00
2018-03-11T10:39:23.401Z,1389.38
2018-03-11T10:40:23.728Z,1552.50
2018-03-11T10:42:15.108Z,1507.50
2018-03-11T10:43:15.096Z,1479.38
2018-03-11T10:45:07.064Z,1355.63
2018-03-11T10:46:07.000Z,1327.50
2018-03-11T10:47:58.992Z,1293.75
2018-03-11T10:48:58.944Z,1321.88
2018-03-11T10:50:50.792Z,1445.63
2018-03-11T10:51:50.851Z,1479.38
2018-03-11T10:53:42.629Z,1524.38
2018-03-11T10:54:42.574Z,1541.25
2018-03-11T10:56:34.560Z,1552.50
2018-03-11T10:57:34.378Z,1659.38
2018-03-11T10:59:27.268Z,1878.75
2018-03-11T11:00:27.200Z,2064.38
2018-03-11T11:02:19.194Z,2486.25
2018-03-11T11:03:19.159Z,2677.50
2018-03-11T11:05:11.039Z,2019.38
2018-03-11T11:06:11.031Z,1749.38
2018-03-11T11:08:02.886Z,1693.13
2018-03-11T11:09:02.874Z,1276.88
2018-03-11T11:10:54.793Z,1271.25
2018-03-11T11:11:54.572Z,1580.63
2018-03-11T11:13:46.360Z,1935.00
2018-03-11T11:14:46.415Z,1856.25
2018-03-11T11:16:38.132Z,1951.88
2018-03-11T11:17:38.053Z,2255.63
2018-03-11T11:19:29.975Z,1743.75
2018-03-11T11:20:29.787Z,1012.50
2018-03-11T11:22:22.784Z,860.63
2018-03-11T11:23:22.786Z,945.00
2018-03-11T11:25:14.662Z,1141.88
2018-03-11T11:26:14.597Z,1158.75
2018-03-11T11:28:06.447Z,967.50
2018-03-11T11:29:06.396Z,984.38
2018-03-11T11:30:58.292Z,928.13
2018-03-11T11:31:58.513Z,950.63
2018-03-11T11:33:51.078Z,911.25
2018-03-11T11:34:50.965Z,1411.88
2018-03-11T11:36:43.865Z,815.63
2018-03-11T11:37:43.689Z,736.88
2018-03-11T11:39:35.545Z,630.00
2018-03-11T11:40:35.537Z,590.63
2018-03-11T11:42:28.325Z,545.63
2018-03-11T11:43:28.241Z,517.50
2018-03-11T11:45:21.038Z,534.38
2018-03-11T11:46:20.982Z,540.00
2018-03-11T11:48:13.377Z,523.13
2018-03-11T11:49:12.773Z,506.25
2018-03-11T11:51:04.617Z,495.00
2018-03-11T11:52:04.566Z,495.00
2018-03-11T11:53:57.386Z,450.00
2018-03-11T11:54:57.309Z,421.88
2018-03-11T11:56:49.150Z,365.63
2018-03-11T11:57:49.057Z,348.75
2018-03-11T11:59:40.880Z,343.13
2018-03-11T12:00:40.861Z,337.50
2018-03-11T12:02:33.741Z,320.63
2018-03-11T12:03:33.674Z,292.50
2018-03-11T12:05:25.590Z,275.63
2018-03-11T12:06:25.583Z,303.75
2018-03-11T12:08:17.375Z,354.38
2018-03-11T12:09:17.238Z,360.00
2018-03-11T12:11:09.148Z,478.13
2018-03-11T12:12:09.048Z,703.13
2018-03-11T12:14:00.802Z,995.63
2018-03-11T12:15:00.749Z,911.25
2018-03-11T12:16:52.561Z,731.25
2018-03-11T12:17:52.578Z,686.25
2018-03-11T12:19:44.661Z,596.25
2018-03-11T12:20:44.496Z,635.63
2018-03-11T12:22:36.623Z,506.25
2018-03-11T12:23:36.442Z,511.88
2018-03-11T12:25:28.383Z,528.75
2018-03-11T12:26:28.331Z,551.25
2018-03-11T12:28:20.124Z,663.75
2018-03-11T12:29:20.067Z,585.00
2018-03-11T12:31:12.005Z,613.13
2018-03-11T12:32:11.846Z,590.63
2018-03-11T12:34:04.714Z,573.75
2018-03-11T12:35:04.653Z,506.25
2018-03-11T12:36:57.143Z,562.50
2018-03-11T12:37:56.434Z,573.75
2018-03-11T12:39:48.279Z,573.75
2018-03-11T12:40:48.208Z,590.63
2018-03-11T12:42:40.037Z,573.75
2018-03-11T12:43:40.181Z,562.50
2018-03-11T12:45:31.941Z,545.63
2018-03-11T12:46:31.730Z,545.63
2018-03-11T12:48:23.650Z,551.25
2018-03-11T12:49:23.464Z,545.63
2018-03-11T12:51:16.234Z,528.75
2018-03-11T12:52:16.164Z,528.75
2018-03-11T12:54:07.929Z,545.63
2018-03-11T12:55:07.869Z,540.00
2018-03-11T12:56:59.631Z,528.75
2018-03-11T12:57:59.595Z,500.63
2018-03-11T12:59:51.407Z,573.75
2018-03-11T13:00:51.337Z,528.75
2018-03-11T13:02:43.125Z,489.38
2018-03-11T13:03:43.081Z,556.88
2018-03-11T13:05:35.036Z,528.75
2018-03-11T13:06:34.773Z,483.75
2018-03-11T13:08:26.547Z,495.00
2018-03-11T13:09:26.494Z,556.88
2018-03-11T13:11:18.423Z,579.38
2018-03-11T13:12:18.397Z,585.00
2018-03-11T13:14:11.221Z,562.50
2018-03-11T13:15:11.092Z,556.88
2018-03-11T13:17:02.909Z,506.25
2018-03-11T13:18:02.824Z,466.88
2018-03-11T13:19:54.686Z,427.50
2018-03-11T13:20:54.620Z,410.63
2018-03-11T13:22:46.497Z,393.75
2018-03-11T13:23:46.423Z,393.75
2018-03-11T13:25:39.268Z,416.25
2018-03-11T13:26:39.218Z,461.25
2018-03-11T13:28:31.139Z,551.25
2018-03-11T13:29:31.076Z,607.50
2018-03-11T13:31:22.878Z,579.38
2018-03-11T13:32:22.798Z,573.75
2018-03-11T13:34:15.641Z,646.88
2018-03-11T13:35:15.519Z,680.63
2018-03-11T13:37:07.313Z,680.63
2018-03-11T13:38:07.232Z,646.88
2018-03-11T13:39:59.122Z,680.63
2018-03-11T13:40:59.093Z,686.25
2018-03-11T13:42:50.865Z,703.13
2018-03-11T13:43:50.769Z,691.88
2018-03-11T13:45:42.582Z,596.25
2018-03-11T13:46:42.498Z,517.50
2018-03-11T13:48:34.321Z,523.13
2018-03-11T13:49:34.214Z,495.00
2018-03-11T13:51:25.978Z,455.63
2018-03-11T13:52:25.929Z,495.00
2018-03-11T13:54:17.761Z,511.88
2018-03-11T13:55:17.701Z,551.25
2018-03-11T13:57:09.448Z,551.25
2018-03-11T13:58:09.384Z,562.50
2018-03-11T14:00:01.185Z,472.50
2018-03-11T14:01:01.109Z,506.25
2018-03-11T14:02:52.889Z,568.13
2018-03-11T14:03:52.846Z,517.50
2018-03-11T14:05:44.583Z,579.38
2018-03-11T14:06:44.533Z,613.13
2018-03-11T14:08:36.573Z,601.88
2018-03-11T14:09:36.430Z,545.63
2018-03-11T14:11:28.148Z,523.13
2018-03-11T14:12:28.049Z,495.00
2018-03-11T14:14:19.965Z,483.75
2018-03-11T14:15:19.876Z,568.13
2018-03-11T14:17:11.836Z,562.50
2018-03-11T14:18:11.781Z,556.88
2018-03-11T14:20:03.730Z,562.50
2018-03-11T14:21:03.615Z,556.88
2018-03-11T14:22:55.477Z,540.00
2018-03-11T14:23:55.411Z,528.75
2018-03-11T14:25:47.268Z,528.75
2018-03-11T14:26:47.190Z,523.13
2018-03-11T14:28:39.177Z,495.00
2018-03-11T14:29:39.048Z,489.38
2018-03-11T14:31:30.888Z,483.75
2018-03-11T14:32:30.817Z,478.13
2018-03-11T14:34:22.597Z,478.13
2018-03-11T14:35:22.501Z,478.13
2018-03-11T14:37:14.394Z,461.25
2018-03-11T14:38:14.251Z,461.25
2018-03-11T14:40:06.029Z,444.38
2018-03-11T14:41:05.993Z,433.13
2018-03-11T14:42:57.845Z,410.63
2018-03-11T14:43:57.721Z,427.50
2018-03-11T14:45:49.639Z,427.50
2018-03-11T14:46:49.586Z,410.63
2018-03-11T14:48:41.368Z,416.25
2018-03-11T14:49:41.283Z,416.25
2018-03-11T14:51:33.332Z,416.25
2018-03-11T14:52:33.168Z,421.88
2018-03-11T14:54:25.030Z,410.63
2018-03-11T14:55:24.967Z,393.75
2018-03-11T14:57:16.743Z,399.38
2018-03-11T14:58:16.660Z,388.13
2018-03-11T15:00:08.465Z,360.00
2018-03-11T15:01:08.400Z,376.88
2018-03-11T15:03:00.210Z,382.50
2018-03-11T15:04:00.094Z,382.50
2018-03-11T15:05:51.908Z,376.88
2018-03-11T15:06:51.849Z,382.50
2018-03-11T15:08:43.761Z,376.88
2018-03-11T15:09:43.593Z,376.88
2018-03-11T15:11:35.464Z,371.25
2018-03-11T15:12:35.412Z,365.63
2018-03-11T15:14:27.230Z,365.63
2018-03-11T15:15:27.183Z,354.38
2018-03-11T15:17:18.998Z,298.13
2018-03-11T15:18:18.880Z,303.75
2018-03-11T15:20:10.680Z,331.88
2018-03-11T15:21:10.594Z,331.88
2018-03-11T15:23:02.389Z,320.63
2018-03-11T15:24:02.306Z,309.38
2018-03-11T15:25:54.093Z,309.38
2018-03-11T15:26:54.004Z,298.13
2018-03-11T15:28:45.914Z,298.13
2018-03-11T15:29:45.874Z,292.50
2018-03-11T15:31:37.697Z,275.63
2018-03-11T15:32:37.603Z,286.88
2018-03-11T15:34:29.406Z,286.88
2018-03-11T15:35:29.317Z,281.25
2018-03-11T15:37:21.408Z,258.75
2018-03-11T15:38:21.309Z,258.75
2018-03-11T15:40:13.289Z,253.13
2018-03-11T15:41:13.198Z,253.13
2018-03-11T15:43:04.991Z,247.50
2018-03-11T15:44:04.909Z,253.13
2018-03-11T15:45:56.705Z,230.63
2018-03-11T15:46:56.632Z,219.38
2018-03-11T15:48:48.576Z,208.13
2018-03-11T15:49:48.475Z,202.50
2018-03-11T15:51:40.388Z,191.25
2018-03-11T15:52:40.207Z,191.25
2018-03-11T15:54:33.095Z,191.25
2018-03-11T15:55:32.984Z,185.63
2018-03-11T15:57:24.807Z,180.00
2018-03-11T15:58:24.696Z,174.38
2018-03-11T16:00:16.547Z,163.13
2018-03-11T16:01:16.405Z,163.13
2018-03-11T16:03:08.216Z,157.50
2018-03-11T16:04:08.134Z,151.88
2018-03-11T16:05:59.917Z,146.25
2018-03-11T16:06:59.846Z,140.63
2018-03-11T16:08:51.638Z,135.00
2018-03-11T16:09:51.584Z,135.00
2018-03-11T16:11:43.377Z,135.00
2018-03-11T16:12:43.281Z,129.38
2018-03-11T16:14:35.056Z,123.75
2018-03-11T16:15:35.178Z,123.75
2018-03-11T16:17:26.797Z,118.13
2018-03-11T16:18:26.721Z,118.13
2018-03-11T16:20:18.546Z,112.50
2018-03-11T16:21:18.483Z,106.88
2018-03-11T16:23:10.351Z,106.88
2018-03-11T16:24:10.238Z,101.25
2018-03-11T16:26:02.020Z,95.63
2018-03-11T16:27:02.148Z,95.63
2018-03-11T16:28:53.778Z,84.38
2018-03-11T16:29:53.753Z,84.38
2018-03-11T16:31:45.610Z,78.75
2018-03-11T16:32:45.500Z,73.13
2018-03-11T16:34:37.281Z,67.50
2018-03-11T16:35:37.219Z,61.88
2018-03-11T16:37:29.041Z,56.25
2018-03-11T16:38:28.990Z,56.25
2018-03-11T16:40:20.802Z,50.63
2018-03-11T16:41:20.721Z,45.00
2018-03-11T16:43:12.510Z,45.00
2018-03-11T16:44:12.455Z,39.38
2018-03-11T16:46:04.370Z,39.38
2018-03-11T16:47:04.385Z,33.75
2018-03-11T16:48:56.721Z,28.13
2018-03-11T16:49:56.148Z,28.13
2018-03-11T16:51:47.969Z,22.50
2018-03-11T16:52:47.883Z,22.50
2018-03-11T16:54:39.689Z,16.88
2018-03-11T16:55:39.615Z,16.88
2018-03-11T16:57:31.431Z,11.25
2018-03-11T16:58:31.283Z,11.25
2018-03-11T17:00:23.133Z,11.25
2018-03-11T17:01:23.054Z,5.63
2018-03-11T17:03:14.967Z,5.63
2018-03-11T17:04:14.891Z,5.63
2018-03-11T17:06:06.713Z,5.63
2018-03-11T17:07:06.682Z,5.63
2018-03-11T17:08:58.442Z,0.00
2018-03-11T17:09:58.495Z,0.00
2018-03-11T17:11:50.121Z,0.00
2018-03-11T17:12:50.107Z,0.00
2018-03-11T17:14:41.812Z,0.00
2018-03-11T17:15:41.766Z,0.00
2018-03-11T17:17:33.588Z,0.00
2018-03-11T17:18:33.459Z,0.00
2018-03-11T17:20:25.412Z,0.00
2018-03-11T17:21:25.281Z,0.00
2018-03-11T17:23:17.072Z,0.00
2018-03-11T17:24:17.000Z,0.00
2018-03-11T17:26:09.778Z,0.00
2018-03-11T17:27:09.700Z,0.00
2018-03-11T17:29:01.460Z,0.00
2018-03-11T17:30:01.401Z,0.00
2018-03-11T17:31:53.182Z,0.00
2018-03-11T17:32:53.125Z,0.00
2018-03-11T17:34:44.865Z,0.00
2018-03-11T17:35:44.797Z,0.00
2018-03-11T17:37:36.585Z,0.00
2018-03-11T17:38:36.510Z,0.00
2018-03-11T17:40:28.323Z,0.00
2018-03-11T17:41:28.258Z,0.00
2018-03-11T17:43:20.040Z,0.00
2018-03-11T17:44:19.956Z,0.00
2018-03-11T17:46:11.729Z,0.00
2018-03-11T17:47:11.657Z,0.00
2018-03-11T17:49:03.402Z,0.00
2018-03-11T17:50:03.344Z,0.00
2018-03-11T17:51:55.109Z,0.00
2018-03-11T17:52:55.038Z,0.00
2018-03-11T17:54:46.797Z,0.00
2018-03-11T17:55:46.789Z,0.00
2018-03-11T17:57:38.511Z,0.00
2018-03-11T17:58:38.434Z,0.00
2018-03-11T18:00:30.197Z,0.00
2018-03-11T18:01:30.179Z,0.00
2018-03-11T18:03:21.913Z,0.00
2018-03-11T18:04:21.834Z,0.00
2018-03-11T18:06:13.655Z,0.00
2018-03-11T18:07:13.531Z,0.00
2018-03-11T18:09:05.303Z,0.00
2018-03-11T18:10:05.226Z,0.00
2018-03-11T18:11:57.020Z,0.00